createdAt,value
2023-05-09T00:00:13.770Z,47.55
2023-05-09T00:02:45.887Z,47.06
2023-05-09T00:05:15.173Z,47.87
2023-05-09T00:07:43.484Z,47.33
2023-05-09T00:10:11.799Z,47.91
2023-05-09T00:12:40.040Z,47.59
2023-05-09T00:15:10.188Z,46.80
2023-05-09T00:17:38.713Z,48.00
2023-05-09T00:20:12.426Z,47.66
2023-05-09T00:22:41.617Z,47.69
2023-05-09T00:25:11.441Z,47.20
2023-05-09T00:27:39.622Z,46.96
2023-05-09T00:30:10.066Z,47.45
2023-05-09T00:32:40.328Z,47.54
2023-05-09T00:35:10.011Z,46.85
2023-05-09T00:37:38.939Z,47.12
2023-05-09T00:40:09.318Z,46.48
2023-05-09T00:42:37.957Z,46.37
2023-05-09T00:45:07.055Z,47.26
2023-05-09T00:47:36.622Z,47.17
2023-05-09T00:50:05.409Z,47.12
2023-05-09T00:52:34.547Z,47.34
2023-05-09T00:55:04.446Z,46.64
2023-05-09T00:57:33.382Z,47.58
2023-05-09T01:00:01.575Z,48.01
2023-05-09T01:02:30.106Z,48.13
2023-05-09T01:04:59.635Z,48.11
2023-05-09T01:07:35.982Z,48.33
2023-05-09T01:10:12.964Z,48.07
2023-05-09T01:12:48.814Z,48.65
2023-05-09T01:15:23.301Z,48.33
2023-05-09T01:17:55.416Z,48.20
2023-05-09T01:20:33.804Z,47.86
2023-05-09T01:23:21.854Z,46.87
2023-05-09T01:26:03.156Z,45.88
2023-05-09T01:29:02.629Z,44.28
2023-05-09T01:31:36.086Z,43.89
2023-05-09T01:34:06.728Z,43.74
2023-05-09T01:36:37.373Z,43.33
2023-05-09T01:39:07.014Z,42.99
2023-05-09T01:41:38.665Z,42.46
2023-05-09T01:44:11.005Z,43.30
2023-05-09T01:46:41.481Z,42.85
2023-05-09T01:49:10.194Z,43.25
2023-05-09T01:51:42.279Z,42.87
2023-05-09T01:54:13.633Z,43.30
2023-05-09T01:56:43.847Z,43.51
2023-05-09T01:59:16.170Z,43.10
2023-05-09T02:01:46.462Z,43.36
2023-05-09T02:04:17.128Z,43.57
2023-05-09T02:06:50.678Z,43.29
2023-05-09T02:09:19.545Z,43.72
2023-05-09T02:11:47.828Z,43.44
2023-05-09T02:14:15.929Z,43.30
2023-05-09T02:16:45.474Z,43.65
2023-05-09T02:19:13.489Z,43.58
2023-05-09T02:21:42.550Z,43.09
2023-05-09T02:24:12.158Z,43.34
2023-05-09T02:26:41.470Z,42.82
2023-05-09T02:29:11.546Z,43.45
2023-05-09T02:31:43.605Z,42.39
2023-05-09T02:34:14.335Z,42.60
2023-05-09T02:36:42.626Z,41.28
2023-05-09T02:39:11.445Z,41.32
2023-05-09T02:41:40.082Z,40.60
2023-05-09T02:44:08.519Z,40.54
2023-05-09T02:46:36.549Z,40.45
2023-05-09T02:49:04.820Z,39.67
2023-05-09T02:51:34.216Z,39.27
2023-05-09T02:54:02.253Z,38.74
2023-05-09T02:56:30.261Z,38.02
2023-05-09T02:58:58.308Z,37.58
2023-05-09T03:01:26.419Z,37.09
2023-05-09T03:03:54.496Z,36.79
2023-05-09T03:06:23.021Z,36.79
2023-05-09T03:08:52.517Z,35.50
2023-05-09T03:11:22.002Z,34.72
2023-05-09T03:13:50.138Z,35.33
2023-05-09T03:16:19.738Z,34.76
2023-05-09T03:18:47.983Z,33.04
2023-05-09T03:21:16.112Z,32.21
2023-05-09T03:23:44.658Z,30.90
2023-05-09T03:26:13.974Z,29.30
2023-05-09T03:28:43.258Z,27.51
2023-05-09T03:31:11.352Z,25.67
2023-05-09T03:33:39.902Z,24.25
2023-05-09T03:36:09.710Z,22.98
2023-05-09T03:38:40.871Z,22.02
2023-05-09T03:41:09.080Z,20.94
2023-05-09T03:43:38.539Z,19.83
2023-05-09T03:46:06.647Z,19.14
2023-05-09T03:48:35.382Z,18.50
2023-05-09T03:51:03.759Z,17.47
2023-05-09T03:53:34.740Z,17.25
2023-05-09T03:56:02.895Z,16.65
2023-05-09T03:58:34.778Z,15.94
2023-05-09T04:01:04.349Z,15.90
2023-05-09T04:03:33.579Z,15.46
2023-05-09T04:06:01.960Z,14.87
2023-05-09T04:08:36.027Z,14.54
2023-05-09T04:11:06.175Z,14.52
2023-05-09T04:13:35.264Z,14.04
2023-05-09T04:16:09.686Z,14.20
2023-05-09T04:18:40.038Z,13.72
2023-05-09T04:21:08.284Z,14.22
2023-05-09T04:23:36.513Z,14.21
2023-05-09T04:26:04.682Z,14.23
2023-05-09T04:28:32.982Z,13.88
2023-05-09T04:31:01.945Z,13.83
2023-05-09T04:33:33.316Z,13.70
2023-05-09T04:36:03.657Z,13.95
2023-05-09T04:38:31.811Z,14.04
2023-05-09T04:41:01.219Z,14.29
2023-05-09T04:43:29.934Z,14.31
2023-05-09T04:45:58.024Z,13.80
2023-05-09T04:48:26.355Z,13.13
2023-05-09T04:50:55.712Z,12.49
2023-05-09T04:53:23.722Z,12.12
2023-05-09T04:55:53.245Z,12.25
2023-05-09T04:58:22.554Z,11.67
2023-05-09T05:00:51.396Z,11.21
2023-05-09T05:03:19.865Z,10.61
2023-05-09T05:05:48.090Z,10.86
2023-05-09T05:08:20.647Z,10.77
2023-05-09T05:10:50.139Z,10.29
2023-05-09T05:13:19.390Z,9.88
2023-05-09T05:15:51.023Z,9.98
2023-05-09T05:18:21.661Z,9.42
2023-05-09T05:20:49.804Z,9.36
2023-05-09T05:23:19.439Z,9.01
2023-05-09T05:25:48.140Z,9.66
2023-05-09T05:28:16.346Z,9.07
2023-05-09T05:30:44.543Z,8.88
2023-05-09T05:33:13.824Z,8.89
2023-05-09T05:35:41.905Z,8.72
2023-05-09T05:38:10.042Z,8.54
2023-05-09T05:40:40.095Z,8.56
2023-05-09T05:43:09.093Z,8.86
2023-05-09T05:45:39.181Z,8.88
2023-05-09T05:48:10.006Z,8.28
2023-05-09T05:50:38.131Z,8.71
2023-05-09T05:53:06.561Z,8.45
2023-05-09T05:55:34.885Z,7.86
2023-05-09T05:58:04.959Z,7.90
2023-05-09T06:00:33.073Z,8.01
2023-05-09T06:03:06.101Z,7.75
2023-05-09T06:06:07.741Z,7.91
2023-05-09T06:08:36.267Z,7.66
2023-05-09T06:11:05.861Z,7.73
2023-05-09T06:13:35.902Z,7.29
2023-05-09T06:16:18.066Z,7.43
2023-05-09T06:18:49.681Z,7.43
2023-05-09T06:21:17.916Z,7.44
2023-05-09T06:26:17.523Z,7.81
2023-05-09T06:28:46.924Z,7.39
2023-05-09T06:31:15.047Z,7.41
2023-05-09T06:33:43.120Z,7.08
2023-05-09T06:36:11.900Z,7.16
2023-05-09T06:38:39.985Z,7.64
2023-05-09T06:41:08.103Z,7.55
2023-05-09T06:43:37.246Z,7.37
2023-05-09T06:46:06.799Z,6.80
2023-05-09T06:48:34.814Z,7.20
2023-05-09T06:51:03.064Z,6.80
2023-05-09T06:53:31.114Z,7.21
2023-05-09T06:55:59.397Z,7.76
2023-05-09T06:58:28.100Z,7.47
2023-05-09T07:00:56.172Z,7.22
2023-05-09T07:03:26.103Z,7.46
2023-05-09T07:05:56.768Z,7.20
2023-05-09T07:08:25.250Z,7.00
2023-05-09T07:10:53.299Z,6.73
2023-05-09T07:13:21.479Z,7.43
2023-05-09T07:15:49.682Z,6.81
2023-05-09T07:18:17.781Z,7.37
2023-05-09T07:20:47.118Z,7.27
2023-05-09T07:23:15.246Z,6.89
2023-05-09T07:25:43.922Z,7.14
2023-05-09T07:28:12.717Z,6.70
2023-05-09T07:30:41.226Z,7.17
2023-05-09T07:33:09.488Z,7.49
2023-05-09T07:35:37.536Z,7.58
2023-05-09T07:38:07.421Z,7.21
2023-05-09T07:40:36.518Z,8.03
2023-05-09T07:43:04.621Z,7.98
2023-05-09T07:45:32.703Z,7.83
2023-05-09T07:48:00.842Z,7.66
2023-05-09T07:50:29.068Z,7.58
2023-05-09T07:52:57.268Z,8.27
2023-05-09T07:55:26.777Z,8.54
2023-05-09T07:57:54.883Z,8.47
2023-05-09T08:00:24.299Z,8.13
2023-05-09T08:02:52.927Z,7.95
2023-05-09T08:05:21.235Z,8.19
2023-05-09T08:07:49.574Z,9.45
2023-05-09T08:10:17.642Z,8.77
2023-05-09T08:12:47.023Z,9.69
2023-05-09T08:15:15.376Z,10.71
2023-05-09T08:17:43.805Z,10.92
2023-05-09T08:20:13.389Z,11.32
2023-05-09T08:22:42.235Z,11.47
2023-05-09T08:25:10.665Z,12.09
2023-05-09T08:27:38.910Z,11.52
2023-05-09T08:30:09.647Z,12.36
2023-05-09T08:32:38.315Z,12.12
2023-05-09T08:35:08.855Z,11.90
2023-05-09T08:37:37.196Z,11.84
2023-05-09T08:40:07.595Z,12.83
2023-05-09T08:42:38.221Z,13.30
2023-05-09T08:45:11.135Z,14.71
2023-05-09T08:47:40.272Z,14.55
2023-05-09T08:50:09.657Z,14.99
2023-05-09T08:52:37.622Z,14.75
2023-05-09T08:55:06.587Z,14.64
2023-05-09T08:57:36.237Z,15.29
2023-05-09T09:00:06.645Z,15.22
2023-05-09T09:02:37.116Z,15.73
2023-05-09T09:07:39.397Z,16.55
2023-05-09T09:10:11.661Z,16.57
2023-05-09T09:12:41.030Z,16.29
2023-05-09T09:15:16.031Z,16.36
2023-05-09T09:17:49.604Z,16.59
2023-05-09T09:20:21.909Z,17.09
2023-05-09T09:22:52.401Z,16.66
2023-05-09T09:25:20.677Z,17.14
2023-05-09T09:27:48.784Z,17.74
2023-05-09T09:30:18.103Z,18.65
2023-05-09T09:32:48.643Z,18.68
2023-05-09T09:35:17.946Z,18.96
2023-05-09T09:37:46.150Z,18.96
2023-05-09T09:40:14.847Z,19.48
2023-05-09T09:42:43.843Z,19.33
2023-05-09T09:45:13.607Z,19.21
2023-05-09T09:47:43.816Z,18.72
2023-05-09T09:50:15.842Z,18.90
2023-05-09T09:52:45.713Z,20.01
2023-05-09T09:55:14.189Z,19.94
2023-05-09T09:57:45.607Z,20.28
2023-05-09T10:00:16.118Z,20.45
2023-05-09T10:02:52.428Z,20.41
2023-05-09T10:05:23.657Z,21.09
2023-05-09T10:07:55.572Z,20.55
2023-05-09T10:10:24.242Z,20.94
2023-05-09T10:12:53.236Z,21.04
2023-05-09T10:15:22.045Z,21.09
2023-05-09T10:17:55.008Z,20.84
2023-05-09T10:20:25.296Z,21.35
2023-05-09T10:22:57.058Z,21.08
2023-05-09T10:25:33.313Z,21.86
2023-05-09T10:28:02.674Z,21.72
2023-05-09T10:30:34.224Z,21.70
2023-05-09T10:33:05.092Z,21.45
2023-05-09T10:35:38.452Z,21.63
2023-05-09T10:38:08.168Z,21.63
2023-05-09T10:40:36.555Z,21.56
2023-05-09T10:43:05.328Z,21.68
2023-05-09T10:45:34.149Z,21.72
2023-05-09T10:48:04.093Z,22.18
2023-05-09T10:50:32.724Z,22.64
2023-05-09T10:53:11.573Z,22.19
2023-05-09T10:55:40.958Z,22.79
2023-05-09T10:58:21.040Z,23.37
2023-05-09T11:00:49.651Z,23.46
2023-05-09T11:03:19.422Z,24.42
2023-05-09T11:05:48.881Z,24.40
2023-05-09T11:08:23.088Z,24.40
2023-05-09T11:10:51.311Z,24.12
2023-05-09T11:13:20.813Z,23.91
2023-05-09T11:16:07.462Z,24.09
2023-05-09T11:18:35.647Z,24.56
2023-05-09T11:21:09.546Z,24.74
2023-05-09T11:23:39.425Z,24.40
2023-05-09T11:26:08.981Z,24.14
2023-05-09T11:28:39.625Z,24.37
2023-05-09T11:31:11.563Z,24.45
2023-05-09T11:33:41.068Z,24.52
2023-05-09T11:36:20.481Z,24.83
2023-05-09T11:38:50.036Z,24.69
2023-05-09T11:41:18.484Z,24.78
2023-05-09T11:43:46.648Z,24.51
2023-05-09T11:46:14.936Z,24.61
2023-05-09T11:48:43.041Z,24.30
2023-05-09T11:51:17.656Z,24.12
2023-05-09T11:53:47.215Z,24.47
2023-05-09T11:56:17.391Z,24.07
2023-05-09T11:58:46.809Z,23.97
2023-05-09T12:01:15.065Z,23.91
2023-05-09T12:03:45.142Z,23.87
2023-05-09T12:06:17.214Z,24.12
2023-05-09T12:08:46.813Z,23.42
2023-05-09T12:11:16.357Z,23.61
2023-05-09T12:13:48.598Z,23.90
2023-05-09T12:16:18.048Z,23.76
2023-05-09T12:18:47.995Z,23.60
2023-05-09T12:21:16.520Z,23.79
2023-05-09T12:23:44.658Z,24.05
2023-05-09T12:26:13.067Z,23.60
2023-05-09T12:28:44.605Z,23.36
2023-05-09T12:31:13.180Z,23.21
2023-05-09T12:33:41.961Z,22.78
2023-05-09T12:36:11.703Z,22.65
2023-05-09T12:38:40.137Z,22.74
2023-05-09T12:41:21.947Z,22.65
2023-05-09T12:43:59.645Z,22.59
2023-05-09T12:46:27.854Z,22.31
2023-05-09T12:48:56.458Z,22.13
2023-05-09T12:51:24.636Z,22.75
2023-05-09T12:53:52.727Z,22.45
2023-05-09T12:56:22.919Z,22.45
2023-05-09T12:58:52.217Z,21.99
2023-05-09T13:01:23.762Z,22.54
2023-05-09T13:04:02.627Z,22.31
2023-05-09T13:06:30.824Z,22.51
2023-05-09T13:09:01.410Z,22.51
2023-05-09T13:11:30.628Z,22.49
2023-05-09T13:13:59.385Z,22.33
2023-05-09T13:16:28.868Z,22.33
2023-05-09T13:18:56.918Z,22.26
2023-05-09T13:21:24.970Z,21.91
2023-05-09T13:23:53.068Z,21.68
2023-05-09T13:26:21.145Z,21.92
2023-05-09T13:28:49.417Z,21.83
2023-05-09T13:31:18.825Z,21.31
2023-05-09T13:33:49.992Z,21.50
2023-05-09T13:36:19.655Z,21.29
2023-05-09T13:38:47.785Z,21.39
2023-05-09T13:41:20.362Z,20.66
2023-05-09T13:43:48.812Z,21.15
2023-05-09T13:46:17.123Z,20.61
2023-05-09T13:48:45.683Z,21.17
2023-05-09T13:51:15.141Z,21.18
2023-05-09T13:53:43.121Z,21.29
2023-05-09T13:56:11.903Z,21.04
2023-05-09T13:58:39.913Z,20.89
2023-05-09T14:01:08.136Z,21.01
2023-05-09T14:03:36.323Z,21.06
2023-05-09T14:06:04.873Z,20.79
2023-05-09T14:08:34.667Z,21.24
2023-05-09T14:11:02.971Z,20.30
2023-05-09T14:13:32.026Z,20.65
2023-05-09T14:16:00.380Z,20.42
2023-05-09T14:18:28.610Z,20.78
2023-05-09T14:20:56.661Z,20.63
2023-05-09T14:23:25.430Z,20.63
2023-05-09T14:25:54.852Z,20.33
2023-05-09T14:28:23.160Z,19.52
2023-05-09T14:30:51.262Z,19.63
2023-05-09T14:33:19.357Z,19.52
2023-05-09T14:35:47.577Z,19.05
2023-05-09T14:38:15.569Z,19.70
2023-05-09T14:40:43.652Z,18.98
2023-05-09T14:43:13.299Z,19.01
2023-05-09T14:45:41.399Z,19.61
2023-05-09T14:48:09.377Z,19.58
2023-05-09T14:50:37.462Z,19.32
2023-05-09T14:53:05.644Z,19.67
2023-05-09T14:55:33.664Z,19.90
2023-05-09T14:58:02.654Z,19.71
2023-05-09T15:00:32.986Z,19.16
2023-05-09T15:03:01.147Z,18.72
2023-05-09T15:05:29.196Z,18.78
2023-05-09T15:07:57.270Z,18.52
2023-05-09T15:10:26.612Z,18.81
2023-05-09T15:12:55.223Z,17.64
2023-05-09T15:15:24.564Z,17.90
2023-05-09T15:17:55.275Z,17.28
2023-05-09T15:20:23.584Z,17.20
2023-05-09T15:22:52.250Z,17.80
2023-05-09T15:25:21.850Z,17.35
2023-05-09T15:27:50.486Z,16.91
2023-05-09T15:30:19.156Z,16.66
2023-05-09T15:32:47.379Z,17.16
2023-05-09T15:35:18.385Z,16.98
2023-05-09T15:37:46.669Z,16.81
2023-05-09T15:40:15.647Z,17.27
2023-05-09T15:42:43.828Z,16.92
2023-05-09T15:45:12.147Z,17.35
2023-05-09T15:47:40.240Z,17.28
2023-05-09T15:50:08.979Z,17.67
2023-05-09T15:52:38.447Z,17.78
2023-05-09T15:55:08.509Z,17.44
2023-05-09T15:57:36.647Z,17.72
2023-05-09T16:00:05.759Z,18.03
2023-05-09T16:02:41.185Z,18.10
2023-05-09T16:05:09.702Z,18.20
2023-05-09T16:07:39.134Z,18.35
2023-05-09T16:10:08.286Z,18.53
2023-05-09T16:12:36.307Z,18.79
2023-05-09T16:15:05.877Z,18.61
2023-05-09T16:17:34.224Z,18.29
2023-05-09T16:20:02.332Z,18.71
2023-05-09T16:22:31.458Z,18.44
2023-05-09T16:25:01.528Z,18.61
2023-05-09T16:27:29.653Z,18.39
2023-05-09T16:29:57.704Z,18.06
2023-05-09T16:32:25.892Z,18.15
2023-05-09T16:34:54.310Z,18.27
2023-05-09T16:37:23.504Z,18.22
2023-05-09T16:39:51.772Z,18.56
2023-05-09T16:42:21.570Z,18.53
2023-05-09T16:44:49.989Z,18.36
2023-05-09T16:47:18.135Z,18.47
2023-05-09T16:49:46.190Z,18.52
2023-05-09T16:52:14.238Z,18.38
2023-05-09T16:54:42.255Z,18.34
2023-05-09T16:57:10.323Z,18.54
2023-05-09T16:59:39.761Z,18.58
2023-05-09T17:02:07.971Z,18.67
2023-05-09T17:04:37.812Z,18.65
2023-05-09T17:07:06.178Z,18.33
2023-05-09T17:09:34.241Z,18.34
2023-05-09T17:12:02.406Z,18.31
2023-05-09T17:14:31.421Z,18.40
2023-05-09T17:17:00.772Z,19.14
2023-05-09T17:19:28.906Z,18.91
2023-05-09T17:21:58.975Z,19.27
2023-05-09T17:24:27.255Z,19.46
2023-05-09T17:26:56.582Z,19.77
2023-05-09T17:29:24.549Z,19.56
2023-05-09T17:31:52.493Z,19.55
2023-05-09T17:34:22.100Z,19.81
2023-05-09T17:36:50.239Z,19.80
2023-05-09T17:39:18.544Z,19.73
2023-05-09T17:41:47.240Z,19.59
2023-05-09T17:44:15.481Z,19.83
2023-05-09T17:46:44.081Z,20.19
2023-05-09T17:49:14.034Z,20.08
2023-05-09T17:51:43.892Z,20.74
2023-05-09T17:54:12.868Z,21.16
2023-05-09T17:56:40.885Z,21.13
2023-05-09T17:59:08.867Z,21.51
2023-05-09T18:01:36.997Z,21.96
2023-05-09T18:04:05.096Z,21.65
2023-05-09T18:06:33.202Z,22.20
2023-05-09T18:09:03.205Z,22.52
2023-05-09T18:11:31.368Z,22.46
2023-05-09T18:13:59.299Z,22.33
2023-05-09T18:16:27.394Z,21.68
2023-05-09T18:18:55.570Z,21.91
2023-05-09T18:21:23.555Z,22.01
2023-05-09T18:23:51.648Z,21.60
2023-05-09T18:26:21.931Z,22.19
2023-05-09T18:28:49.875Z,21.90
2023-05-09T18:31:18.069Z,21.63
2023-05-09T18:33:46.537Z,22.16
2023-05-09T18:36:15.365Z,22.20
2023-05-09T18:38:44.539Z,22.80
2023-05-09T18:41:13.720Z,22.43
2023-05-09T18:43:45.935Z,22.97
2023-05-09T18:46:17.310Z,23.03
2023-05-09T18:48:47.246Z,23.02
2023-05-09T18:51:15.192Z,22.20
2023-05-09T18:53:43.382Z,22.92
2023-05-09T18:56:11.491Z,22.24
2023-05-09T18:58:39.943Z,23.09
2023-05-09T19:01:11.750Z,22.34
2023-05-09T19:03:43.616Z,22.47
2023-05-09T19:06:13.658Z,22.79
2023-05-09T19:08:41.813Z,22.56
2023-05-09T19:11:11.603Z,22.70
2023-05-09T19:13:40.884Z,22.18
2023-05-09T19:16:10.408Z,22.68
2023-05-09T19:18:38.499Z,23.01
2023-05-09T19:21:06.679Z,22.69
2023-05-09T19:23:34.941Z,23.08
2023-05-09T19:26:03.518Z,24.17
2023-05-09T19:28:31.599Z,24.77
2023-05-09T19:30:59.642Z,26.71
2023-05-09T19:33:29.118Z,27.19
2023-05-09T19:35:57.227Z,28.79
2023-05-09T19:38:25.421Z,30.20
2023-05-09T19:40:53.771Z,30.85
2023-05-09T19:43:21.907Z,31.60
2023-05-09T19:45:50.208Z,33.09
2023-05-09T19:48:18.275Z,34.16
2023-05-09T19:50:47.691Z,32.63
2023-05-09T19:53:15.692Z,32.80
2023-05-09T19:55:46.791Z,32.10
2023-05-09T19:58:17.473Z,31.32
2023-05-09T20:00:46.010Z,30.16
2023-05-09T20:03:14.236Z,28.69
2023-05-09T20:05:42.309Z,28.04
2023-05-09T20:08:11.742Z,28.10
2023-05-09T20:10:40.491Z,28.46
2023-05-09T20:13:08.539Z,28.48
2023-05-09T20:15:36.692Z,28.34
2023-05-09T20:18:07.155Z,27.88
2023-05-09T20:20:35.372Z,28.04
2023-05-09T20:23:03.407Z,26.78
2023-05-09T20:25:32.741Z,27.83
2023-05-09T20:28:00.796Z,27.61
2023-05-09T20:30:28.818Z,28.28
2023-05-09T20:32:58.563Z,28.67
2023-05-09T20:35:26.696Z,29.28
2023-05-09T20:37:54.742Z,28.99
2023-05-09T20:40:23.488Z,30.00
2023-05-09T20:42:52.816Z,30.10
2023-05-09T20:45:21.195Z,30.02
2023-05-09T20:47:50.521Z,30.69
2023-05-09T20:50:18.790Z,29.84
2023-05-09T20:52:46.891Z,30.14
2023-05-09T20:55:14.968Z,29.68
2023-05-09T20:57:42.974Z,28.95
2023-05-09T21:00:13.592Z,29.40
2023-05-09T21:11:46.528Z,30.17
2023-05-09T21:14:14.612Z,30.99
2023-05-09T21:16:45.181Z,31.23
2023-05-09T21:19:13.420Z,31.04
2023-05-09T21:21:41.498Z,31.18
2023-05-09T21:24:09.930Z,31.16
2023-05-09T21:26:37.918Z,31.43
2023-05-09T21:29:06.603Z,31.75
2023-05-09T21:31:34.856Z,31.63
2023-05-09T21:34:09.737Z,30.42
2023-05-09T21:36:38.493Z,30.96
2023-05-09T21:39:09.642Z,30.95
2023-05-09T21:41:38.745Z,30.57
2023-05-09T21:44:07.383Z,31.10
2023-05-09T21:46:36.180Z,30.97
2023-05-09T21:49:05.761Z,30.84
2023-05-09T21:51:34.100Z,31.19
2023-05-09T21:54:02.257Z,31.70
2023-05-09T21:56:30.645Z,32.36
2023-05-09T21:58:58.823Z,32.14
2023-05-09T22:01:26.756Z,32.15
2023-05-09T22:03:54.983Z,32.53
2023-05-09T22:06:24.441Z,33.09
2023-05-09T22:08:52.577Z,33.07
2023-05-09T22:11:20.638Z,33.39
2023-05-09T22:13:48.664Z,32.35
2023-05-09T22:16:17.596Z,32.74
2023-05-09T22:18:45.853Z,32.47
2023-05-09T22:21:13.873Z,31.88
2023-05-09T22:23:43.293Z,31.84
2023-05-09T22:26:11.294Z,32.11
2023-05-09T22:28:39.510Z,31.64
2023-05-09T22:31:08.511Z,31.72
2023-05-09T22:33:36.622Z,32.88
2023-05-09T22:36:05.793Z,34.49
2023-05-09T22:38:33.932Z,35.02
2023-05-09T22:41:03.359Z,35.18
2023-05-09T22:43:38.641Z,35.25
2023-05-09T22:46:08.066Z,35.78
2023-05-09T22:48:36.321Z,35.78
2023-05-09T22:51:04.649Z,35.99
2023-05-09T22:53:33.776Z,36.15
2023-05-09T22:56:03.338Z,37.14
2023-05-09T22:58:31.427Z,36.70
2023-05-09T23:00:59.465Z,37.02
2023-05-09T23:03:27.698Z,36.93
2023-05-09T23:05:55.784Z,36.86
2023-05-09T23:08:24.433Z,37.14
2023-05-09T23:10:53.008Z,37.47
2023-05-09T23:13:22.410Z,37.27
2023-05-09T23:15:50.464Z,38.43
2023-05-09T23:18:18.649Z,38.62
2023-05-09T23:20:46.603Z,39.50
2023-05-09T23:23:14.650Z,40.66
2023-05-09T23:25:42.863Z,41.87
2023-05-09T23:28:11.052Z,42.52
2023-05-09T23:30:40.472Z,42.35
2023-05-09T23:33:08.578Z,41.74
2023-05-09T23:35:36.767Z,40.90
2023-05-09T23:38:05.046Z,40.45
2023-05-09T23:40:33.157Z,40.25
2023-05-09T23:43:01.281Z,40.85
2023-05-09T23:45:29.520Z,40.29
2023-05-09T23:47:59.157Z,40.10
2023-05-09T23:50:27.245Z,38.77
2023-05-09T23:52:55.324Z,38.10
2023-05-09T23:55:23.308Z,38.55
2023-05-09T23:57:51.301Z,38.75
